sensor_id;sensor_type;location;lat;lon;timestamp;pressure;altitude;pressure_sealevel;temperature
73685;BMP280;61985;51.070;14.064;2023-12-20T09:21:09;98121.84;;;4.73
73685;BMP280;61985;51.070;14.064;2023-12-20T09:23:40;98125.25;;;4.78
73685;BMP280;61985;51.070;14.064;2023-12-20T09:26:10;98138.53;;;4.81
73685;BMP280;61985;51.070;14.064;2023-12-20T09:28:36;98141.19;;;4.88
73685;BMP280;61985;51.070;14.064;2023-12-20T09:31:07;98147.97;;;4.97
73685;BMP280;61985;51.070;14.064;2023-12-20T09:33:33;98139.59;;;4.98
73685;BMP280;61985;51.070;14.064;2023-12-20T09:35:59;98141.88;;;4.96
73685;BMP280;61985;51.070;14.064;2023-12-20T09:38:25;98140.03;;;4.89
73685;BMP280;61985;51.070;14.064;2023-12-20T09:40:50;98128.97;;;4.91
73685;BMP280;61985;51.070;14.064;2023-12-20T09:43:19;98120.97;;;4.91
73685;BMP280;61985;51.070;14.064;2023-12-20T09:45:46;98139.53;;;5.02
73685;BMP280;61985;51.070;14.064;2023-12-20T09:48:12;98130.34;;;5.06
73685;BMP280;61985;51.070;14.064;2023-12-20T09:50:40;98128.81;;;5.05
73685;BMP280;61985;51.070;14.064;2023-12-20T09:53:08;98123.44;;;5.09
73685;BMP280;61985;51.070;14.064;2023-12-20T09:55:36;98128.78;;;5.12
73685;BMP280;61985;51.070;14.064;2023-12-20T09:58:01;98129.47;;;5.17
73685;BMP280;61985;51.070;14.064;2023-12-20T10:00:27;98124.81;;;5.24
73685;BMP280;61985;51.070;14.064;2023-12-20T10:02:59;98116.78;;;5.28
73685;BMP280;61985;51.070;14.064;2023-12-20T10:05:30;98125.00;;;5.44
73685;BMP280;61985;51.070;14.064;2023-12-20T10:07:55;98123.09;;;5.45
73685;BMP280;61985;51.070;14.064;2023-12-20T10:10:21;98124.97;;;5.48
73685;BMP280;61985;51.070;14.064;2023-12-20T10:13:07;98121.47;;;5.55
73685;BMP280;61985;51.070;14.064;2023-12-20T10:15:35;98101.59;;;5.56
73685;BMP280;61985;51.070;14.064;2023-12-20T10:18:04;98113.00;;;5.60
73685;BMP280;61985;51.070;14.064;2023-12-20T10:20:30;98107.69;;;5.56
73685;BMP280;61985;51.070;14.064;2023-12-20T10:22:56;98090.19;;;5.51
73685;BMP280;61985;51.070;14.064;2023-12-20T10:25:22;98103.16;;;5.53
73685;BMP280;61985;51.070;14.064;2023-12-20T10:27:47;98108.53;;;5.49
73685;BMP280;61985;51.070;14.064;2023-12-20T10:30:13;98093.31;;;5.46
73685;BMP280;61985;51.070;14.064;2023-12-20T10:32:39;98098.25;;;5.48
73685;BMP280;61985;51.070;14.064;2023-12-20T10:35:05;98085.25;;;5.50
73685;BMP280;61985;51.070;14.064;2023-12-20T10:37:31;98085.66;;;5.48
73685;BMP280;61985;51.070;14.064;2023-12-20T10:40:03;98082.56;;;5.50
73685;BMP280;61985;51.070;14.064;2023-12-20T10:42:29;98079.59;;;5.44
73685;BMP280;61985;51.070;14.064;2023-12-20T10:44:54;98078.16;;;5.36
73685;BMP280;61985;51.070;14.064;2023-12-20T10:47:20;98082.03;;;5.31
73685;BMP280;61985;51.070;14.064;2023-12-20T10:49:46;98082.69;;;5.39
73685;BMP280;61985;51.070;14.064;2023-12-20T10:52:12;98077.34;;;5.39
73685;BMP280;61985;51.070;14.064;2023-12-20T10:54:39;98078.50;;;5.38
73685;BMP280;61985;51.070;14.064;2023-12-20T10:57:06;98075.09;;;5.38
73685;BMP280;61985;51.070;14.064;2023-12-20T10:59:33;98063.66;;;5.33
73685;BMP280;61985;51.070;14.064;2023-12-20T11:02:02;98063.63;;;5.37
73685;BMP280;61985;51.070;14.064;2023-12-20T11:07:30;98068.56;;;5.39
73685;BMP280;61985;51.070;14.064;2023-12-20T11:10:18;98070.88;;;5.37
73685;BMP280;61985;51.070;14.064;2023-12-20T11:12:58;98063.59;;;5.41
73685;BMP280;61985;51.070;14.064;2023-12-20T11:15:26;98059.75;;;5.42
73685;BMP280;61985;51.070;14.064;2023-12-20T11:17:56;98058.22;;;5.44
73685;BMP280;61985;51.070;14.064;2023-12-20T11:20:36;98059.34;;;5.43
73685;BMP280;61985;51.070;14.064;2023-12-20T11:23:02;98048.31;;;5.41
73685;BMP280;61985;51.070;14.064;2023-12-20T11:25:27;98050.19;;;5.44
73685;BMP280;61985;51.070;14.064;2023-12-20T11:28:10;98051.31;;;5.47
73685;BMP280;61985;51.070;14.064;2023-12-20T11:30:49;98053.66;;;5.41
73685;BMP280;61985;51.070;14.064;2023-12-20T11:33:15;98047.97;;;5.39
73685;BMP280;61985;51.070;14.064;2023-12-20T11:35:41;98050.63;;;5.39
73685;BMP280;61985;51.070;14.064;2023-12-20T11:38:10;98035.34;;;5.40
73685;BMP280;61985;51.070;14.064;2023-12-20T11:40:36;98040.38;;;5.34
73685;BMP280;61985;51.070;14.064;2023-12-20T11:43:02;98043.50;;;5.29
73685;BMP280;61985;51.070;14.064;2023-12-20T11:45:28;98030.09;;;5.32
73685;BMP280;61985;51.070;14.064;2023-12-20T11:47:53;98047.31;;;5.28
73685;BMP280;61985;51.070;14.064;2023-12-20T11:50:20;98041.97;;;5.28
73685;BMP280;61985;51.070;14.064;2023-12-20T11:52:46;98040.84;;;5.29
73685;BMP280;61985;51.070;14.064;2023-12-20T11:55:11;98035.59;;;5.22
73685;BMP280;61985;51.070;14.064;2023-12-20T11:57:37;98032.13;;;5.25
73685;BMP280;61985;51.070;14.064;2023-12-20T12:00:04;98029.84;;;5.23
73685;BMP280;61985;51.070;14.064;2023-12-20T12:02:30;98023.72;;;5.26
73685;BMP280;61985;51.070;14.064;2023-12-20T12:04:55;98010.31;;;5.30
73685;BMP280;61985;51.070;14.064;2023-12-20T12:07:22;98013.66;;;5.34
73685;BMP280;61985;51.070;14.064;2023-12-20T12:09:47;98013.91;;;5.47
73685;BMP280;61985;51.070;14.064;2023-12-20T12:12:13;98009.31;;;5.47
73685;BMP280;61985;51.070;14.064;2023-12-20T12:14:39;98005.03;;;5.54
73685;BMP280;61985;51.070;14.064;2023-12-20T12:17:12;97989.72;;;5.58
73685;BMP280;61985;51.070;14.064;2023-12-20T12:19:39;97992.94;;;5.73
73685;BMP280;61985;51.070;14.064;2023-12-20T12:22:22;97976.31;;;5.85
73685;BMP280;61985;51.070;14.064;2023-12-20T12:24:51;97974.91;;;6.04
73685;BMP280;61985;51.070;14.064;2023-12-20T12:27:17;97976.88;;;6.00
73685;BMP280;61985;51.070;14.064;2023-12-20T12:30:00;97983.50;;;5.92
73685;BMP280;61985;51.070;14.064;2023-12-20T12:32:27;97966.34;;;5.89
73685;BMP280;61985;51.070;14.064;2023-12-20T12:34:52;97960.25;;;5.88
73685;BMP280;61985;51.070;14.064;2023-12-20T12:37:18;97963.75;;;5.85
73685;BMP280;61985;51.070;14.064;2023-12-20T12:39:43;97967.25;;;6.06
73685;BMP280;61985;51.070;14.064;2023-12-20T12:42:08;97950.94;;;6.20
73685;BMP280;61985;51.070;14.064;2023-12-20T12:44:34;97955.25;;;6.38
73685;BMP280;61985;51.070;14.064;2023-12-20T12:46:59;97947.38;;;6.51
73685;BMP280;61985;51.070;14.064;2023-12-20T12:49:24;97944.34;;;6.25
73685;BMP280;61985;51.070;14.064;2023-12-20T12:51:51;97936.06;;;6.19
73685;BMP280;61985;51.070;14.064;2023-12-20T12:54:16;97947.47;;;6.23
73685;BMP280;61985;51.070;14.064;2023-12-20T12:56:43;97937.22;;;6.18
73685;BMP280;61985;51.070;14.064;2023-12-20T12:59:09;97935.16;;;6.06
73685;BMP280;61985;51.070;14.064;2023-12-20T13:01:34;97930.25;;;6.01
73685;BMP280;61985;51.070;14.064;2023-12-20T13:03:59;97936.34;;;6.01
73685;BMP280;61985;51.070;14.064;2023-12-20T13:06:28;97927.59;;;6.01
73685;BMP280;61985;51.070;14.064;2023-12-20T13:08:53;97936.69;;;6.03
73685;BMP280;61985;51.070;14.064;2023-12-20T13:11:18;97928.28;;;6.05
73685;BMP280;61985;51.070;14.064;2023-12-20T13:13:44;97919.91;;;6.03
73685;BMP280;61985;51.070;14.064;2023-12-20T13:16:09;97911.13;;;6.02
73685;BMP280;61985;51.070;14.064;2023-12-20T13:18:34;97915.78;;;5.98
73685;BMP280;61985;51.070;14.064;2023-12-20T13:21:00;97912.75;;;5.96
73685;BMP280;61985;51.070;14.064;2023-12-20T13:23:25;97903.41;;;5.84
73685;BMP280;61985;51.070;14.064;2023-12-20T13:25:50;97895.03;;;5.82
73685;BMP280;61985;51.070;14.064;2023-12-20T13:28:16;97901.22;;;5.79
73685;BMP280;61985;51.070;14.064;2023-12-20T13:30:41;97886.31;;;5.78
73685;BMP280;61985;51.070;14.064;2023-12-20T13:33:07;97891.31;;;5.76
73685;BMP280;61985;51.070;14.064;2023-12-20T13:35:33;97888.16;;;5.81
73685;BMP280;61985;51.070;14.064;2023-12-20T13:37:59;97895.03;;;5.82
73685;BMP280;61985;51.070;14.064;2023-12-20T13:40:25;97890.84;;;5.81
73685;BMP280;61985;51.070;14.064;2023-12-20T13:42:50;97887.06;;;5.79
73685;BMP280;61985;51.070;14.064;2023-12-20T13:45:16;97904.00;;;6.16
73685;BMP280;61985;51.070;14.064;2023-12-20T13:47:41;97881.97;;;6.32
73685;BMP280;61985;51.070;14.064;2023-12-20T13:50:07;97886.09;;;6.13
73685;BMP280;61985;51.070;14.064;2023-12-20T13:52:32;97883.53;;;6.09
73685;BMP280;61985;51.070;14.064;2023-12-20T13:54:57;97879.84;;;5.99
73685;BMP280;61985;51.070;14.064;2023-12-20T13:57:23;97871.78;;;6.03
73685;BMP280;61985;51.070;14.064;2023-12-20T13:59:48;97869.97;;;5.96
73685;BMP280;61985;51.070;14.064;2023-12-20T14:02:13;97873.13;;;5.91
73685;BMP280;61985;51.070;14.064;2023-12-20T14:04:39;97880.25;;;5.98
73685;BMP280;61985;51.070;14.064;2023-12-20T14:07:04;97872.91;;;6.25
73685;BMP280;61985;51.070;14.064;2023-12-20T14:09:30;97879.44;;;6.24
73685;BMP280;61985;51.070;14.064;2023-12-20T14:11:55;97885.03;;;6.10
73685;BMP280;61985;51.070;14.064;2023-12-20T14:14:20;97883.34;;;5.96
73685;BMP280;61985;51.070;14.064;2023-12-20T14:16:46;97871.78;;;6.03
73685;BMP280;61985;51.070;14.064;2023-12-20T14:19:11;97865.97;;;6.28
73685;BMP280;61985;51.070;14.064;2023-12-20T14:21:37;97874.75;;;6.29
73685;BMP280;61985;51.070;14.064;2023-12-20T14:24:02;97864.66;;;6.16
73685;BMP280;61985;51.070;14.064;2023-12-20T14:26:29;97868.38;;;5.99
73685;BMP280;61985;51.070;14.064;2023-12-20T14:28:55;97859.94;;;5.80
73685;BMP280;61985;51.070;14.064;2023-12-20T14:31:20;97869.22;;;5.72
73685;BMP280;61985;51.070;14.064;2023-12-20T14:33:45;97870.09;;;5.65
73685;BMP280;61985;51.070;14.064;2023-12-20T14:36:11;97859.13;;;5.60
73685;BMP280;61985;51.070;14.064;2023-12-20T14:38:36;97858.81;;;5.54
73685;BMP280;61985;51.070;14.064;2023-12-20T14:41:02;97854.69;;;5.49
73685;BMP280;61985;51.070;14.064;2023-12-20T14:43:29;97852.84;;;5.46
73685;BMP280;61985;51.070;14.064;2023-12-20T14:45:54;97858.22;;;5.43
73685;BMP280;61985;51.070;14.064;2023-12-20T14:48:20;97852.47;;;5.44
73685;BMP280;61985;51.070;14.064;2023-12-20T14:50:46;97863.53;;;5.46
73685;BMP280;61985;51.070;14.064;2023-12-20T14:53:13;97865.84;;;5.44
73685;BMP280;61985;51.070;14.064;2023-12-20T14:55:40;97863.16;;;5.44
73685;BMP280;61985;51.070;14.064;2023-12-20T14:58:05;97847.16;;;5.44
73685;BMP280;61985;51.070;14.064;2023-12-20T15:00:30;97868.13;;;5.46
73685;BMP280;61985;51.070;14.064;2023-12-20T15:02:56;97867.38;;;5.45
73685;BMP280;61985;51.070;14.064;2023-12-20T15:05:21;97860.16;;;5.42
73685;BMP280;61985;51.070;14.064;2023-12-20T15:07:47;97874.22;;;5.46
73685;BMP280;61985;51.070;14.064;2023-12-20T15:10:13;97874.09;;;5.54
73685;BMP280;61985;51.070;14.064;2023-12-20T15:12:38;97863.75;;;5.56
73685;BMP280;61985;51.070;14.064;2023-12-20T15:15:04;97869.50;;;5.54
73685;BMP280;61985;51.070;14.064;2023-12-20T15:17:30;97870.66;;;5.53
73685;BMP280;61985;51.070;14.064;2023-12-20T15:19:55;97871.06;;;5.51
73685;BMP280;61985;51.070;14.064;2023-12-20T15:22:20;97858.00;;;5.57
73685;BMP280;61985;51.070;14.064;2023-12-20T15:24:46;97862.25;;;5.55
73685;BMP280;61985;51.070;14.064;2023-12-20T15:27:12;97861.53;;;5.50
73685;BMP280;61985;51.070;14.064;2023-12-20T15:29:37;97865.72;;;5.51
73685;BMP280;61985;51.070;14.064;2023-12-20T15:32:03;97868.69;;;5.57
73685;BMP280;61985;51.070;14.064;2023-12-20T15:34:31;97861.97;;;5.49
73685;BMP280;61985;51.070;14.064;2023-12-20T15:36:57;97853.53;;;5.50
73685;BMP280;61985;51.070;14.064;2023-12-20T15:39:22;97865.78;;;5.48
73685;BMP280;61985;51.070;14.064;2023-12-20T15:41:47;97865.03;;;5.47
73685;BMP280;61985;51.070;14.064;2023-12-20T15:44:13;97872.66;;;5.49
73685;BMP280;61985;51.070;14.064;2023-12-20T15:46:38;97861.22;;;5.48
73685;BMP280;61985;51.070;14.064;2023-12-20T15:49:04;97872.97;;;5.51
73685;BMP280;61985;51.070;14.064;2023-12-20T15:51:29;97867.72;;;5.47
73685;BMP280;61985;51.070;14.064;2023-12-20T15:53:55;97868.88;;;5.46
73685;BMP280;61985;51.070;14.064;2023-12-20T15:56:20;97873.50;;;5.42
73685;BMP280;61985;51.070;14.064;2023-12-20T15:58:46;97875.00;;;5.43
73685;BMP280;61985;51.070;14.064;2023-12-20T16:01:13;97869.63;;;5.47
73685;BMP280;61985;51.070;14.064;2023-12-20T16:03:38;97883.81;;;5.40
73685;BMP280;61985;51.070;14.064;2023-12-20T16:06:04;97873.13;;;5.44
73685;BMP280;61985;51.070;14.064;2023-12-20T16:08:29;97870.78;;;5.46
73685;BMP280;61985;51.070;14.064;2023-12-20T16:10:55;97883.41;;;5.45
73685;BMP280;61985;51.070;14.064;2023-12-20T16:13:20;97872.72;;;5.45
73685;BMP280;61985;51.070;14.064;2023-12-20T16:15:45;97871.59;;;5.43
73685;BMP280;61985;51.070;14.064;2023-12-20T16:18:11;97879.28;;;5.37
73685;BMP280;61985;51.070;14.064;2023-12-20T16:20:39;97868.16;;;5.42
73685;BMP280;61985;51.070;14.064;2023-12-20T16:23:06;97871.19;;;5.44
73685;BMP280;61985;51.070;14.064;2023-12-20T16:25:32;97871.66;;;5.39
73685;BMP280;61985;51.070;14.064;2023-12-20T16:27:57;97887.78;;;5.32
73685;BMP280;61985;51.070;14.064;2023-12-20T16:30:23;97889.72;;;5.28
73685;BMP280;61985;51.070;14.064;2023-12-20T16:32:48;97882.53;;;5.25
73685;BMP280;61985;51.070;14.064;2023-12-20T16:35:15;97886.88;;;5.15
73685;BMP280;61985;51.070;14.064;2023-12-20T16:37:40;97876.88;;;5.19
73685;BMP280;61985;51.070;14.064;2023-12-20T16:40:06;97878.09;;;5.15
73685;BMP280;61985;51.070;14.064;2023-12-20T16:42:32;97877.69;;;5.16
73685;BMP280;61985;51.070;14.064;2023-12-20T16:44:57;97896.72;;;5.18
73685;BMP280;61985;51.070;14.064;2023-12-20T16:47:23;97870.84;;;5.15
73685;BMP280;61985;51.070;14.064;2023-12-20T16:49:48;97878.44;;;5.17
73685;BMP280;61985;51.070;14.064;2023-12-20T16:52:13;97880.44;;;5.12
73685;BMP280;61985;51.070;14.064;2023-12-20T16:54:39;97880.78;;;5.15
73685;BMP280;61985;51.070;14.064;2023-12-20T16:57:04;97880.47;;;5.09
73685;BMP280;61985;51.070;14.064;2023-12-20T16:59:30;97886.97;;;5.08
73685;BMP280;61985;51.070;14.064;2023-12-20T17:01:55;97883.56;;;5.04
73685;BMP280;61985;51.070;14.064;2023-12-20T17:04:20;97890.44;;;5.05
73685;BMP280;61985;51.070;14.064;2023-12-20T17:06:48;97886.25;;;5.04
73685;BMP280;61985;51.070;14.064;2023-12-20T17:09:14;97894.00;;;4.94
73685;BMP280;61985;51.070;14.064;2023-12-20T17:11:41;97896.00;;;4.87
73685;BMP280;61985;51.070;14.064;2023-12-20T17:14:06;97891.03;;;4.85
73685;BMP280;61985;51.070;14.064;2023-12-20T17:16:34;97897.19;;;4.82
73685;BMP280;61985;51.070;14.064;2023-12-20T17:18:59;97895.00;;;4.73
73685;BMP280;61985;51.070;14.064;2023-12-20T17:21:26;97906.06;;;4.75
73685;BMP280;61985;51.070;14.064;2023-12-20T17:23:57;97901.13;;;4.70
73685;BMP280;61985;51.070;14.064;2023-12-20T17:29:58;97917.19;;;4.67
73685;BMP280;61985;51.070;14.064;2023-12-20T18:00:51;97913.16;;;4.10
73685;BMP280;61985;51.070;14.064;2023-12-20T18:03:36;97917.34;;;4.07
73685;BMP280;61985;51.070;14.064;2023-12-20T18:06:02;97917.75;;;4.06
73685;BMP280;61985;51.070;14.064;2023-12-20T18:08:30;97912.06;;;4.04
73685;BMP280;61985;51.070;14.064;2023-12-20T18:10:55;97914.38;;;4.01
73685;BMP280;61985;51.070;14.064;2023-12-20T18:13:20;97908.69;;;3.99
73685;BMP280;61985;51.070;14.064;2023-12-20T18:15:46;97913.25;;;3.99
73685;BMP280;61985;51.070;14.064;2023-12-20T18:18:11;97917.84;;;3.98
73685;BMP280;61985;51.070;14.064;2023-12-20T18:20:40;97903.38;;;3.96
73685;BMP280;61985;51.070;14.064;2023-12-20T18:23:11;97917.44;;;3.96
73685;BMP280;61985;51.070;14.064;2023-12-20T18:25:45;97920.91;;;3.97
73685;BMP280;61985;51.070;14.064;2023-12-20T18:28:44;97927.03;;;3.90
73685;BMP280;61985;51.070;14.064;2023-12-20T22:04:59;97716.16;;;4.50
73685;BMP280;61985;51.070;14.064;2023-12-20T22:07:43;97712.69;;;4.53
73685;BMP280;61985;51.070;14.064;2023-12-20T22:17:26;97711.53;;;4.54
73685;BMP280;61985;51.070;14.064;2023-12-20T22:20:00;97706.53;;;4.56
73685;BMP280;61985;51.070;14.064;2023-12-20T22:22:42;97689.00;;;4.59
73685;BMP280;61985;51.070;14.064;2023-12-20T22:25:37;97702.19;;;4.66
73685;BMP280;61985;51.070;14.064;2023-12-20T22:28:14;97688.81;;;4.69
73685;BMP280;61985;51.070;14.064;2023-12-20T22:31:03;97680.00;;;4.72
73685;BMP280;61985;51.070;14.064;2023-12-20T22:33:42;97680.69;;;4.80
73685;BMP280;61985;51.070;14.064;2023-12-20T22:36:14;97685.94;;;4.84
73685;BMP280;61985;51.070;14.064;2023-12-20T22:38:44;97669.91;;;4.84
73685;BMP280;61985;51.070;14.064;2023-12-20T22:41:10;97683.19;;;4.87
73685;BMP280;61985;51.070;14.064;2023-12-20T22:43:38;97663.84;;;4.83
73685;BMP280;61985;51.070;14.064;2023-12-20T22:46:11;97674.78;;;4.89
73685;BMP280;61985;51.070;14.064;2023-12-20T22:48:42;97663.38;;;4.88
73685;BMP280;61985;51.070;14.064;2023-12-20T22:51:12;97658.78;;;4.89
73685;BMP280;61985;51.070;14.064;2023-12-20T22:53:50;97650.34;;;4.94
73685;BMP280;61985;51.070;14.064;2023-12-20T22:56:28;97655.41;;;4.85
